Time;durP1;ratioP1;P1;durP2;ratioP2;P2;SDS_P1;SDS_P2;PMS_P1;PMS_P2;Temp;Humidity;BMP_temperature;BMP_pressure;BME280_temperature;BME280_humidity;BME280_pressure;Samples;Min_cycle;Max_cycle;Signal;HPM_P1;HPM_P2
2021/12/09 00:01:44;;;;;;;2.25;0.93;;;20.90;47.40;;;;;;5107281;28;20491;-76
2021/12/09 00:04:13;;;;;;;3.33;0.93;;;20.80;47.40;;;;;;5103335;28;20048;-73
2021/12/09 00:06:40;;;;;;;2.25;1.00;;;20.80;47.40;;;;;;5105759;27;20059;-74
2021/12/09 00:09:16;;;;;;;1.88;1.00;;;20.90;47.40;;;;;;5106137;28;20039;-74
2021/12/09 00:11:44;;;;;;;2.78;0.82;;;20.90;47.30;;;;;;5106028;28;20510;-78
2021/12/09 00:14:23;;;;;;;1.33;0.88;;;20.90;47.40;;;;;;5105903;28;20489;-76
2021/12/09 00:16:49;;;;;;;;;;;20.80;47.30;;;;;;5090643;28;20035;-73
2021/12/09 00:19:14;;;;;;;1.60;0.77;;;20.80;47.30;;;;;;5105794;28;20429;-77
2021/12/09 00:21:40;;;;;;;3.30;0.88;;;20.80;47.30;;;;;;5108272;28;20035;-70
2021/12/09 00:24:06;;;;;;;1.48;0.90;;;20.80;47.30;;;;;;5105230;28;20127;-77
2021/12/09 00:26:31;;;;;;;1.70;0.77;;;20.90;48.10;;;;;;5107006;28;20050;-78
2021/12/09 00:28:57;;;;;;;1.52;0.80;;;20.80;47.30;;;;;;5104676;28;20094;-77
2021/12/09 00:31:25;;;;;;;2.35;1.00;;;20.90;47.30;;;;;;5107626;28;20050;-71
2021/12/09 00:33:51;;;;;;;2.13;0.80;;;20.80;47.20;;;;;;5106613;28;20472;-78
2021/12/09 00:36:26;;;;;;;2.30;0.77;;;20.90;47.30;;;;;;5106848;28;20032;-77
2021/12/09 00:38:54;;;;;;;1.88;1.00;;;20.90;47.30;;;;;;5104021;28;20043;-69
2021/12/09 00:41:20;;;;;;;4.53;0.90;;;20.90;47.30;;;;;;5106751;28;20047;-73
2021/12/09 00:43:45;;;;;;;2.28;0.90;;;20.80;47.20;;;;;;5103632;28;20059;-74
2021/12/09 00:46:11;;;;;;;1.98;0.90;;;20.90;47.20;;;;;;5106013;28;20075;-73
2021/12/09 00:48:37;;;;;;;2.17;0.98;;;20.90;47.30;;;;;;5104259;28;20050;-77
2021/12/09 00:51:04;;;;;;;3.15;0.90;;;20.90;47.20;;;;;;5106206;28;20134;-77
2021/12/09 00:53:30;;;;;;;2.75;0.95;;;20.90;47.20;;;;;;5101513;28;20068;-77
2021/12/09 00:55:56;;;;;;;2.15;0.95;;;20.90;47.20;;;;;;5106627;28;20055;-75
2021/12/09 00:58:22;;;;;;;2.80;1.08;;;20.90;47.10;;;;;;5104722;28;20054;-77
2021/12/09 01:00:48;;;;;;;1.63;0.90;;;20.90;47.20;;;;;;5107003;28;20043;-68
2021/12/09 01:03:14;;;;;;;1.30;0.65;;;20.90;47.10;;;;;;5103154;28;20419;-75
2021/12/09 01:05:39;;;;;;;1.55;0.95;;;20.90;47.20;;;;;;5105235;28;20403;-75
2021/12/09 01:08:05;;;;;;;1.60;1.00;;;20.90;47.10;;;;;;5102556;28;20024;-78
2021/12/09 01:10:32;;;;;;;1.50;0.82;;;20.90;47.10;;;;;;5106468;28;20056;-77
2021/12/09 01:12:57;;;;;;;0.98;0.70;;;20.90;47.10;;;;;;5105323;28;20429;-74
2021/12/09 01:15:23;;;;;;;1.95;0.70;;;20.90;47.10;;;;;;5104804;28;20396;-76
2021/12/09 01:17:50;;;;;;;1.65;0.80;;;20.90;47.10;;;;;;5104860;28;20479;-75
2021/12/09 01:20:17;;;;;;;2.50;1.13;;;20.90;47.10;;;;;;5105072;28;20058;-77
2021/12/09 01:22:43;;;;;;;3.65;0.90;;;20.90;47.00;;;;;;5104427;28;20543;-78
2021/12/09 01:25:12;;;;;;;1.85;0.95;;;20.90;47.00;;;;;;5106190;28;20036;-77
2021/12/09 01:27:41;;;;;;;1.65;0.70;;;20.90;47.00;;;;;;5105367;28;20177;-77
2021/12/09 01:30:13;;;;;;;2.22;0.80;;;20.90;47.00;;;;;;5087441;28;20047;-77
2021/12/09 01:32:42;;;;;;;1.42;0.80;;;20.90;47.00;;;;;;5102391;28;20546;-74
2021/12/09 01:35:09;;;;;;;1.50;0.90;;;20.90;47.00;;;;;;5103510;28;20180;-77
2021/12/09 01:37:38;;;;;;;2.70;1.00;;;20.90;47.00;;;;;;5100238;28;20378;-77
2021/12/09 01:40:04;;;;;;;2.17;0.70;;;20.90;47.00;;;;;;5106669;27;20032;-74
2021/12/09 01:42:30;;;;;;;3.10;0.90;;;20.90;46.90;;;;;;5103982;28;20475;-69
2021/12/09 01:44:55;;;;;;;1.75;0.70;;;20.90;46.90;;;;;;5105757;28;20031;-72
2021/12/09 01:47:21;;;;;;;1.92;0.90;;;20.90;46.90;;;;;;5101844;28;20039;-69
2021/12/09 01:49:47;;;;;;;2.20;0.93;;;20.90;46.90;;;;;;5105445;28;20067;-68
2021/12/09 01:52:12;;;;;;;1.88;0.90;;;20.90;46.90;;;;;;5104419;28;20044;-76
2021/12/09 01:54:38;;;;;;;0.80;0.70;;;20.90;46.80;;;;;;5124082;27;20060;-78
2021/12/09 01:57:05;;;;;;;1.52;0.80;;;20.90;46.80;;;;;;5102179;28;20035;-77
2021/12/09 01:59:31;;;;;;;1.83;0.88;;;20.90;46.80;;;;;;5103304;28;20165;-76
2021/12/09 02:01:56;;;;;;;1.90;0.90;;;20.90;46.80;;;;;;5103905;28;20126;-77
2021/12/09 02:04:22;;;;;;;1.40;0.88;;;20.90;46.80;;;;;;5104199;28;20044;-77
2021/12/09 02:06:49;;;;;;;1.45;0.75;;;20.90;46.80;;;;;;5103335;28;20043;-77
2021/12/09 02:09:16;;;;;;;1.30;0.82;;;20.90;46.80;;;;;;5102386;28;20039;-75
2021/12/09 02:11:42;;;;;;;1.55;0.82;;;20.90;46.80;;;;;;5102795;28;20834;-78
2021/12/09 02:14:09;;;;;;;3.35;0.85;;;20.90;46.70;;;;;;5103657;28;20072;-77
2021/12/09 02:16:35;;;;;;;1.33;0.73;;;20.90;46.80;;;;;;5101493;28;20040;-77
2021/12/09 02:19:02;;;;;;;1.10;0.80;;;20.90;46.80;;;;;;5104069;28;20043;-76
2021/12/09 02:21:34;;;;;;;1.52;0.70;;;20.90;46.70;;;;;;5103460;28;20114;-74
2021/12/09 02:24:03;;;;;;;1.48;0.80;;;20.90;46.70;;;;;;5101379;28;20042;-72
2021/12/09 02:26:32;;;;;;;1.88;1.00;;;20.90;46.70;;;;;;5106193;28;20040;-77
2021/12/09 02:28:58;;;;;;;2.80;0.90;;;20.90;46.70;;;;;;5103511;28;20494;-76
2021/12/09 02:31:26;;;;;;;2.72;0.80;;;20.90;46.70;;;;;;5106682;28;20035;-76
2021/12/09 02:33:52;;;;;;;3.80;1.20;;;20.90;46.70;;;;;;5099225;28;20070;-77
2021/12/09 02:36:18;;;;;;;2.35;0.98;;;20.90;46.70;;;;;;5101996;28;20050;-77
2021/12/09 02:38:45;;;;;;;1.48;0.80;;;20.90;46.70;;;;;;5104387;28;20509;-73
2021/12/09 02:41:16;;;;;;;1.77;0.70;;;20.90;46.70;;;;;;5102075;28;20084;-76
2021/12/09 02:43:43;;;;;;;2.22;1.08;;;20.90;46.70;;;;;;5102396;28;20066;-77
2021/12/09 02:46:09;;;;;;;1.92;1.00;;;20.90;46.70;;;;;;5101289;28;20080;-77
2021/12/09 02:48:34;;;;;;;3.25;0.90;;;20.80;46.60;;;;;;5104436;28;20051;-74
2021/12/09 02:51:01;;;;;;;2.45;0.93;;;20.90;46.70;;;;;;5098988;28;20629;-77
2021/12/09 02:53:27;;;;;;;1.48;0.88;;;20.90;46.70;;;;;;5085837;28;20051;-77
2021/12/09 02:55:53;;;;;;;2.00;0.90;;;20.90;46.70;;;;;;5101145;28;20048;-77
2021/12/09 02:58:19;;;;;;;2.22;0.82;;;20.90;46.70;;;;;;5127206;27;20108;-76
2021/12/09 03:00:52;;;;;;;2.45;1.00;;;20.90;46.60;;;;;;5102818;28;20582;-77
2021/12/09 03:03:18;;;;;;;1.77;0.80;;;20.90;46.60;;;;;;5099894;28;20165;-75
2021/12/09 03:05:45;;;;;;;5.13;0.90;;;20.90;46.70;;;;;;5103527;28;20039;-78
2021/12/09 03:08:11;;;;;;;1.75;0.80;;;20.90;46.70;;;;;;5104631;28;20047;-75
2021/12/09 03:10:38;;;;;;;1.48;0.88;;;20.90;46.70;;;;;;5104801;28;20059;-75
2021/12/09 03:13:05;;;;;;;1.70;0.95;;;20.90;46.60;;;;;;5105265;28;20522;-78
2021/12/09 03:15:34;;;;;;;1.40;0.80;;;20.90;46.60;;;;;;5102552;28;20562;-76
2021/12/09 03:17:59;;;;;;;;;;;20.90;46.70;;;;;;5104092;28;20595;-77
2021/12/09 03:20:27;;;;;;;1.48;0.70;;;20.90;46.60;;;;;;5103730;28;19923;-78
2021/12/09 03:22:54;;;;;;;1.98;1.02;;;20.90;46.60;;;;;;5104212;28;20047;-76
2021/12/09 03:25:20;;;;;;;1.83;0.95;;;20.90;46.60;;;;;;5067837;28;20036;-71
2021/12/09 03:27:47;;;;;;;2.20;0.90;;;20.90;46.50;;;;;;5104564;28;20040;-75
2021/12/09 03:30:16;;;;;;;2.42;0.98;;;20.90;46.60;;;;;;5103453;28;20044;-77
2021/12/09 03:32:42;;;;;;;2.63;1.10;;;20.90;46.50;;;;;;5105878;28;20408;-69
2021/12/09 03:35:08;;;;;;;1.70;0.90;;;20.90;46.50;;;;;;5104838;28;20100;-77
2021/12/09 03:37:35;;;;;;;2.25;1.00;;;20.90;46.50;;;;;;5105393;28;20491;-69
2021/12/09 03:40:00;;;;;;;1.48;0.70;;;20.90;46.50;;;;;;5104123;28;20036;-77
2021/12/09 03:42:29;;;;;;;1.52;0.82;;;20.90;46.40;;;;;;5104836;28;20540;-76
2021/12/09 03:44:56;;;;;;;1.40;0.90;;;20.90;46.40;;;;;;5094946;28;20094;-77
2021/12/09 03:47:25;;;;;;;1.73;0.90;;;20.90;46.40;;;;;;5088723;28;20073;-75
2021/12/09 03:49:51;;;;;;;1.38;0.88;;;20.90;46.40;;;;;;5096070;28;20055;-68
2021/12/09 03:52:17;;;;;;;2.10;0.90;;;20.90;46.30;;;;;;5091171;28;20040;-75
2021/12/09 03:54:43;;;;;;;1.45;0.80;;;20.90;46.40;;;;;;5092099;28;20043;-77
2021/12/09 03:57:09;;;;;;;2.40;0.80;;;20.90;46.30;;;;;;5105553;28;20158;-78
2021/12/09 03:59:35;;;;;;;2.78;0.80;;;20.90;46.30;;;;;;5102042;28;20046;-77
2021/12/09 04:02:01;;;;;;;1.30;0.90;;;20.90;46.30;;;;;;5106204;28;20554;-76
2021/12/09 04:04:27;;;;;;;1.50;0.80;;;20.90;46.30;;;;;;5092256;28;20044;-77
2021/12/09 04:06:53;;;;;;;2.30;1.05;;;20.90;46.30;;;;;;5086823;28;20384;-73
2021/12/09 04:09:20;;;;;;;1.95;1.10;;;20.90;46.30;;;;;;5102122;28;20043;-76
2021/12/09 04:11:46;;;;;;;2.67;1.20;;;20.90;46.30;;;;;;5105145;28;20078;-74
2021/12/09 04:14:12;;;;;;;2.17;1.00;;;20.90;46.30;;;;;;5103717;28;20415;-76
2021/12/09 04:16:39;;;;;;;2.13;1.00;;;20.90;46.20;;;;;;5104949;28;20043;-78
2021/12/09 04:19:07;;;;;;;1.98;0.90;;;20.90;46.20;;;;;;5094682;28;20037;-78
2021/12/09 04:21:34;;;;;;;1.52;0.95;;;20.90;46.20;;;;;;5088639;28;20545;-77
2021/12/09 04:23:59;;;;;;;2.22;0.90;;;20.90;46.20;;;;;;5102792;28;20620;-76
2021/12/09 04:26:25;;;;;;;2.97;1.05;;;20.90;46.20;;;;;;5103290;28;20074;-76
2021/12/09 04:28:50;;;;;;;1.83;0.80;;;20.90;46.20;;;;;;5102775;28;20036;-76
2021/12/09 04:31:17;;;;;;;1.80;0.98;;;20.90;46.20;;;;;;5106185;28;20054;-77
2021/12/09 04:33:43;;;;;;;2.30;0.90;;;20.90;46.30;;;;;;5105337;28;20044;-77
2021/12/09 04:36:10;;;;;;;1.75;0.90;;;20.90;46.30;;;;;;5107396;28;20055;-78
2021/12/09 04:38:38;;;;;;;2.03;0.80;;;20.90;46.30;;;;;;5099703;28;20036;-76
2021/12/09 04:41:04;;;;;;;2.45;1.00;;;20.90;46.30;;;;;;5103533;28;20068;-78
2021/12/09 04:43:29;;;;;;;1.58;0.70;;;20.90;46.20;;;;;;5106586;28;20031;-78
2021/12/09 04:45:57;;;;;;;1.65;0.90;;;20.90;46.30;;;;;;5107164;28;20099;-76
2021/12/09 04:48:23;;;;;;;1.65;0.80;;;20.80;46.20;;;;;;5107076;28;20046;-74
2021/12/09 04:50:48;;;;;;;1.65;0.93;;;20.90;46.30;;;;;;5106518;28;20739;-74
2021/12/09 04:53:14;;;;;;;1.50;0.82;;;20.80;46.20;;;;;;5080946;28;20189;-76
2021/12/09 04:55:40;;;;;;;1.95;0.80;;;20.90;46.30;;;;;;5101080;28;20419;-76
2021/12/09 04:58:07;;;;;;;3.13;1.02;;;20.90;46.30;;;;;;5106540;28;20039;-78
2021/12/09 05:00:37;;;;;;;2.33;1.07;;;20.80;46.20;;;;;;5107495;28;20055;-74
2021/12/09 05:03:08;;;;;;;1.60;0.80;;;20.80;46.20;;;;;;5105732;28;20773;-73
2021/12/09 05:05:38;;;;;;;2.22;1.00;;;20.90;46.30;;;;;;5106374;28;20074;-70
2021/12/09 05:08:05;;;;;;;2.92;0.80;;;20.80;46.20;;;;;;5106902;28;20392;-75
2021/12/09 05:10:36;;;;;;;2.42;0.90;;;20.80;46.20;;;;;;5107958;28;20134;-78
2021/12/09 05:13:03;;;;;;;2.60;1.08;;;20.80;46.20;;;;;;5106137;28;20040;-68
2021/12/09 05:15:29;;;;;;;2.53;0.80;;;20.80;46.10;;;;;;5107930;28;20035;-78
2021/12/09 05:17:55;;;;;;;1.10;0.70;;;20.80;46.10;;;;;;5105453;28;20043;-78
2021/12/09 05:20:22;;;;;;;1.77;0.80;;;20.80;46.10;;;;;;5107199;28;20115;-78
2021/12/09 05:22:48;;;;;;;1.92;0.90;;;20.80;46.10;;;;;;5107705;28;20039;-78
2021/12/09 05:25:13;;;;;;;1.38;0.90;;;20.80;46.10;;;;;;5105044;28;20043;-78
2021/12/09 05:27:39;;;;;;;1.45;0.88;;;20.80;46.10;;;;;;5106621;28;20046;-76
2021/12/09 05:30:11;;;;;;;1.20;0.93;;;20.80;46.10;;;;;;5107593;28;20169;-77
2021/12/09 05:32:37;;;;;;;1.63;0.80;;;20.80;46.10;;;;;;5106459;28;20052;-75
2021/12/09 05:35:03;;;;;;;1.10;0.70;;;20.80;46.10;;;;;;5130880;27;20039;-77
2021/12/09 05:37:29;;;;;;;1.35;0.90;;;20.80;46.10;;;;;;5106128;28;20046;-78
2021/12/09 05:39:56;;;;;;;1.13;0.70;;;20.80;46.10;;;;;;5104551;28;20414;-77
2021/12/09 05:42:24;;;;;;;2.03;1.00;;;20.80;46.10;;;;;;5106582;28;20415;-77
2021/12/09 05:44:50;;;;;;;1.30;0.90;;;20.80;46.10;;;;;;5105765;28;20044;-74
2021/12/09 05:47:16;;;;;;;2.15;0.75;;;20.80;46.10;;;;;;5102415;28;20084;-78
2021/12/09 05:49:44;;;;;;;1.55;0.90;;;20.80;46.90;;;;;;5105968;28;20647;-75
2021/12/09 05:52:10;;;;;;;;;;;20.80;46.00;;;;;;5091209;28;20043;-76
2021/12/09 05:54:36;;;;;;;1.83;1.00;;;20.80;46.20;;;;;;5107331;28;19923;-75
2021/12/09 05:57:02;;;;;;;1.55;0.90;;;20.90;46.20;;;;;;5106880;28;20128;-76
2021/12/09 05:59:28;;;;;;;2.67;0.80;;;20.80;46.20;;;;;;5106879;28;20063;-73
2021/12/09 06:01:54;;;;;;;1.92;0.95;;;20.80;46.30;;;;;;5104936;28;20032;-78
2021/12/09 06:04:21;;;;;;;1.63;0.82;;;20.80;46.30;;;;;;5105039;28;20039;-78
2021/12/09 06:06:47;;;;;;;1.30;0.80;;;20.80;46.40;;;;;;5106317;28;20052;-80
2021/12/09 06:09:13;;;;;;;3.25;1.10;;;20.80;46.40;;;;;;5105717;28;20495;-77
2021/12/09 06:11:41;;;;;;;1.67;0.82;;;20.80;46.30;;;;;;5099810;28;20062;-77
2021/12/09 06:14:07;;;;;;;1.52;0.95;;;20.80;46.40;;;;;;5104078;28;20479;-75
2021/12/09 06:16:34;;;;;;;1.73;0.90;;;20.80;46.40;;;;;;5105896;28;20166;-77
2021/12/09 06:19:01;;;;;;;1.90;1.00;;;20.80;46.40;;;;;;5103805;28;20156;-72
2021/12/09 06:21:30;;;;;;;2.17;1.05;;;20.80;46.40;;;;;;5104813;28;20096;-71
2021/12/09 06:23:59;;;;;;;1.73;0.80;;;20.90;46.50;;;;;;5107379;28;20044;-72
2021/12/09 06:26:26;;;;;;;2.03;1.20;;;20.90;46.50;;;;;;5106241;28;20048;-73
2021/12/09 06:28:52;;;;;;;1.80;1.00;;;20.90;46.50;;;;;;5107201;28;20055;-75
2021/12/09 06:31:19;;;;;;;1.27;1.02;;;20.90;46.50;;;;;;5106052;28;20031;-74
2021/12/09 06:33:45;;;;;;;1.55;0.90;;;20.90;46.50;;;;;;5104795;28;20082;-75
2021/12/09 06:36:11;;;;;;;1.88;1.02;;;20.90;46.40;;;;;;5104703;28;20464;-78
2021/12/09 06:38:36;;;;;;;2.08;0.98;;;20.90;46.40;;;;;;5107442;28;20042;-72
2021/12/09 06:41:02;;;;;;;2.30;1.00;;;20.90;46.40;;;;;;5101577;28;20065;-70
2021/12/09 06:43:27;;;;;;;4.20;1.02;;;20.90;46.50;;;;;;5103571;28;20040;-73
2021/12/09 06:45:55;;;;;;;4.25;0.93;;;20.90;46.50;;;;;;5104375;28;20084;-70
2021/12/09 06:48:23;;;;;;;1.80;1.02;;;20.90;46.50;;;;;;5102226;28;20091;-66
2021/12/09 06:50:50;;;;;;;2.40;0.90;;;20.90;46.50;;;;;;5103665;28;20043;-71
2021/12/09 06:53:16;;;;;;;3.63;0.93;;;20.80;46.40;;;;;;5099367;28;20513;-78
2021/12/09 06:55:43;;;;;;;2.30;1.10;;;20.90;46.60;;;;;;5099333;27;20074;-68
2021/12/09 06:58:09;;;;;;;3.10;0.90;;;20.80;46.50;;;;;;5090324;28;20028;-70
2021/12/09 07:00:46;;;;;;;5.05;1.00;;;20.90;46.60;;;;;;5096252;27;20136;-75
2021/12/09 07:03:13;;;;;;;5.28;1.10;;;20.90;46.60;;;;;;5101833;28;20118;-76
2021/12/09 07:05:42;;;;;;;4.20;0.90;;;20.90;46.60;;;;;;5093781;28;20047;-73
2021/12/09 07:08:08;;;;;;;1.65;1.00;;;20.90;46.70;;;;;;5102488;28;20043;-74
2021/12/09 07:10:34;;;;;;;2.10;1.10;;;20.90;46.90;;;;;;5099379;28;20040;-74
2021/12/09 07:13:04;;;;;;;2.15;1.10;;;20.90;47.00;;;;;;5102827;28;20044;-74
2021/12/09 07:15:29;;;;;;;2.83;1.10;;;20.90;47.10;;;;;;5101348;28;20047;-72
2021/12/09 07:17:55;;;;;;;1.55;1.10;;;20.90;47.10;;;;;;5104084;28;20054;-80
2021/12/09 07:20:24;;;;;;;5.50;1.65;;;20.90;47.20;;;;;;5101429;28;20096;-75
2021/12/09 07:22:52;;;;;;;2.03;1.02;;;20.90;47.20;;;;;;5092182;28;20383;-77
2021/12/09 07:25:20;;;;;;;2.35;0.90;;;20.80;47.20;;;;;;5099628;28;20054;-74
2021/12/09 07:27:46;;;;;;;3.88;1.20;;;20.90;47.30;;;;;;5101315;28;20051;-74
2021/12/09 07:30:14;;;;;;;2.58;1.30;;;20.90;47.20;;;;;;5100107;28;20039;-74
2021/12/09 07:32:40;;;;;;;2.97;1.20;;;20.90;47.00;;;;;;5099742;28;20130;-74
2021/12/09 07:35:07;;;;;;;2.55;1.10;;;20.90;46.90;;;;;;5100978;28;20047;-73
2021/12/09 07:37:36;;;;;;;3.53;1.52;;;20.90;46.70;;;;;;5101744;28;20525;-73
2021/12/09 07:40:04;;;;;;;2.10;1.20;;;20.90;46.80;;;;;;5100351;28;20119;-71
2021/12/09 07:42:31;;;;;;;3.33;1.35;;;20.90;46.70;;;;;;5098501;28;20044;-74
2021/12/09 07:45:00;;;;;;;7.95;1.38;;;20.90;46.70;;;;;;5097382;28;20165;-73
2021/12/09 07:47:26;;;;;;;3.10;1.40;;;20.90;46.80;;;;;;5100848;28;20142;-77
2021/12/09 07:49:51;;;;;;;2.85;1.25;;;20.90;46.80;;;;;;5090464;28;20525;-70
2021/12/09 07:52:17;;;;;;;5.47;1.73;;;20.90;46.70;;;;;;5089484;28;20040;-73
2021/12/09 07:54:43;;;;;;;5.28;1.63;;;20.90;46.40;;;;;;5081506;28;20058;-71
2021/12/09 07:57:09;;;;;;;10.35;1.85;;;20.90;46.30;;;;;;5099862;28;20130;-66
2021/12/09 07:59:36;;;;;;;11.02;1.55;;;21.00;46.20;;;;;;5099035;28;20059;-72
2021/12/09 08:02:02;;;;;;;2.90;1.50;;;21.00;46.00;;;;;;5102421;28;20044;-65
2021/12/09 08:04:28;;;;;;;7.53;1.67;;;21.00;45.90;;;;;;5103875;28;20036;-71
2021/12/09 08:06:53;;;;;;;6.20;1.80;;;21.00;45.80;;;;;;5097569;27;20857;-71
2021/12/09 08:09:19;;;;;;;7.30;1.52;;;21.00;45.60;;;;;;5106275;27;20170;-66
2021/12/09 08:11:44;;;;;;;8.07;1.67;;;21.00;45.40;;;;;;5137327;27;20062;-71
2021/12/09 08:14:11;;;;;;;4.78;1.98;;;21.00;45.10;;;;;;5103358;28;20048;-72
2021/12/09 08:16:39;;;;;;;4.78;1.75;;;21.00;45.00;;;;;;5098507;27;20552;-67
2021/12/09 08:19:13;;;;;;;4.72;1.48;;;21.00;44.80;;;;;;5107499;28;20513;-74
2021/12/09 08:21:40;;;;;;;4.53;1.92;;;21.00;44.70;;;;;;5109032;28;20035;-74
2021/12/09 08:24:09;;;;;;;3.85;1.85;;;21.00;44.70;;;;;;5093343;28;20044;-73
2021/12/09 08:26:35;;;;;;;;;;;21.00;44.60;;;;;;5090349;28;20025;-75
2021/12/09 08:29:02;;;;;;;2.55;1.40;;;21.00;44.30;;;;;;5091782;27;19931;-74
2021/12/09 08:31:29;;;;;;;5.38;1.60;;;21.10;44.50;;;;;;5109168;28;20169;-70
2021/12/09 08:33:56;;;;;;;5.22;1.70;;;21.20;44.40;;;;;;5097634;28;20076;-68
2021/12/09 08:36:21;;;;;;;3.42;1.48;;;21.20;44.20;;;;;;5106611;28;20123;-69
2021/12/09 08:38:48;;;;;;;2.83;1.77;;;21.30;44.10;;;;;;5099590;28;20404;-70
2021/12/09 08:41:18;;;;;;;2.92;1.70;;;21.50;43.90;;;;;;5107036;28;20040;-70
2021/12/09 08:43:45;;;;;;;5.15;1.50;;;21.40;43.80;;;;;;5104978;28;20040;-70
2021/12/09 08:46:11;;;;;;;3.65;1.38;;;21.40;43.90;;;;;;5098237;28;20064;-68
2021/12/09 08:48:36;;;;;;;4.47;1.55;;;21.40;43.90;;;;;;5099603;28;20086;-69
2021/12/09 08:51:05;;;;;;;6.20;1.50;;;21.40;44.00;;;;;;5104511;28;20475;-71
2021/12/09 08:53:31;;;;;;;2.15;1.20;;;21.40;44.10;;;;;;5092671;28;20032;-82
2021/12/09 08:55:56;;;;;;;5.22;1.50;;;21.30;44.00;;;;;;5124119;27;20047;-75
2021/12/09 08:58:23;;;;;;;4.13;1.65;;;21.30;44.20;;;;;;5121691;27;20059;-72
2021/12/09 09:00:52;;;;;;;4.10;1.60;;;21.30;44.30;;;;;;5101474;28;20047;-72
2021/12/09 09:03:17;;;;;;;2.85;1.33;;;21.30;44.30;;;;;;5093192;28;20437;-67
2021/12/09 09:05:43;;;;;;;2.30;1.50;;;21.30;44.30;;;;;;5105969;28;20046;-73
2021/12/09 09:08:12;;;;;;;3.35;1.45;;;21.30;45.10;;;;;;5105558;28;20035;-71
2021/12/09 09:10:40;;;;;;;3.97;1.50;;;21.30;44.20;;;;;;5103067;28;20036;-74
2021/12/09 09:13:06;;;;;;;3.75;1.55;;;21.30;44.20;;;;;;5096340;28;20044;-70
2021/12/09 09:15:32;;;;;;;6.60;1.50;;;21.30;44.10;;;;;;5103479;28;20093;-76
2021/12/09 09:18:02;;;;;;;2.03;1.27;;;21.30;44.20;;;;;;5106433;28;20104;-72
2021/12/09 09:20:31;;;;;;;5.55;1.35;;;21.30;44.20;;;;;;5101511;28;20045;-74
2021/12/09 09:22:59;;;;;;;4.50;1.50;;;21.30;44.20;;;;;;5104178;28;20067;-71
2021/12/09 09:25:29;;;;;;;3.13;1.52;;;21.30;44.10;;;;;;5101102;28;20079;-74
2021/12/09 09:28:00;;;;;;;3.75;1.48;;;21.30;44.20;;;;;;5096083;28;20468;-73
2021/12/09 09:30:33;;;;;;;5.20;1.58;;;21.40;44.30;;;;;;5104591;28;20042;-81
2021/12/09 09:33:00;;;;;;;3.33;1.40;;;21.40;44.30;;;;;;5102090;28;20051;-75
2021/12/09 09:35:26;;;;;;;5.18;1.77;;;21.40;44.30;;;;;;5104772;28;20049;-79
2021/12/09 09:37:51;;;;;;;4.95;1.70;;;21.40;44.30;;;;;;5099673;28;20048;-80
2021/12/09 09:40:27;;;;;;;5.60;1.45;;;21.40;44.40;;;;;;5104410;28;20059;-78
2021/12/09 09:43:13;;;;;;;4.72;1.50;;;21.40;44.50;;;;;;5096690;28;20041;-78
2021/12/09 09:45:38;;;;;;;6.07;1.80;;;21.40;44.60;;;;;;5104875;28;20511;-77
2021/12/09 09:48:08;;;;;;;4.25;1.50;;;21.40;44.70;;;;;;5102448;28;20035;-72
2021/12/09 09:50:33;;;;;;;3.40;1.48;;;21.40;44.70;;;;;;5100428;28;20039;-73
2021/12/09 09:53:01;;;;;;;4.18;1.50;;;21.40;44.70;;;;;;5101125;28;20359;-79
2021/12/09 09:55:26;;;;;;;6.40;1.40;;;21.40;44.80;;;;;;5102245;28;20085;-80
2021/12/09 09:57:52;;;;;;;4.32;1.40;;;21.40;44.80;;;;;;5103111;28;20044;-71
2021/12/09 10:00:19;;;;;;;5.43;1.52;;;21.40;44.80;;;;;;5103555;28;20071;-77
2021/12/09 10:02:52;;;;;;;3.90;1.55;;;21.50;45.00;;;;;;5103403;27;20084;-74
2021/12/09 10:05:33;;;;;;;5.80;1.70;;;21.40;45.00;;;;;;5102263;28;20058;-78
2021/12/09 10:07:58;;;;;;;;;;;21.40;45.00;;;;;;5099658;28;20513;-78
2021/12/09 10:10:24;;;;;;;7.47;1.58;;;21.50;45.00;;;;;;5106002;28;19927;-74
2021/12/09 10:12:58;;;;;;;3.30;1.50;;;21.50;44.90;;;;;;5096468;28;20052;-79
2021/12/09 10:15:32;;;;;;;4.10;1.30;;;21.50;44.90;;;;;;5104870;28;21132;-79
2021/12/09 10:17:58;;;;;;;3.92;1.50;;;21.40;44.90;;;;;;5100820;28;20039;-80
2021/12/09 10:20:48;;;;;;;4.30;1.65;;;21.50;44.90;;;;;;5104199;28;20152;-79
2021/12/09 10:23:29;;;;;;;5.07;1.45;;;21.50;44.90;;;;;;5101180;28;20043;-75
2021/12/09 10:26:43;;;;;;;3.33;1.60;;;21.50;44.90;;;;;;5102412;28;20051;-78
2021/12/09 10:29:09;;;;;;;5.20;1.48;;;21.50;44.90;;;;;;5087749;28;20305;-77
2021/12/09 10:31:40;;;;;;;4.18;1.42;;;21.50;44.90;;;;;;5102780;28;20483;-77
2021/12/09 10:34:11;;;;;;;4.75;1.63;;;21.50;44.90;;;;;;5089486;28;20036;-78
2021/12/09 10:37:00;;;;;;;3.60;1.27;;;21.50;45.70;;;;;;5086390;28;20069;-77
2021/12/09 10:39:46;;;;;;;7.13;1.45;;;21.50;44.90;;;;;;5099243;28;20134;-79
2021/12/09 10:42:22;;;;;;;3.00;1.30;;;21.50;45.00;;;;;;5103924;28;20035;-76
2021/12/09 10:44:53;;;;;;;5.03;1.40;;;21.50;45.00;;;;;;5094589;28;20067;-79
2021/12/09 10:53:18;;;;;;;4.22;1.45;;;21.50;45.10;;;;;;5101289;28;20170;-78
2021/12/09 10:55:46;;;;;;;4.47;1.27;;;21.50;45.10;;;;;;5099867;28;20118;-75
2021/12/09 10:58:14;;;;;;;7.50;1.67;;;21.50;45.20;;;;;;5100986;28;20079;-72
2021/12/09 11:00:39;;;;;;;5.13;1.40;;;21.50;45.20;;;;;;5099434;28;20069;-67
2021/12/09 11:03:16;;;;;;;4.40;1.50;;;21.50;45.30;;;;;;5100984;28;20056;-74
2021/12/09 11:05:54;;;;;;;5.07;1.40;;;21.50;45.30;;;;;;5102823;28;20039;-73
2021/12/09 11:08:32;;;;;;;4.43;1.48;;;21.50;45.40;;;;;;5101912;28;20039;-70
2021/12/09 11:11:31;;;;;;;7.30;2.28;;;21.40;45.40;;;;;;5103877;28;20051;-71
2021/12/09 11:14:02;;;;;;;58.38;25.58;;;21.40;45.50;;;;;;5098268;28;20111;-72
2021/12/09 11:16:34;;;;;;;147.68;66.53;;;21.40;45.90;;;;;;5102648;28;20264;-70
2021/12/09 11:19:13;;;;;;;180.98;74.47;;;21.40;46.30;;;;;;5103833;28;20085;-71
2021/12/09 11:21:55;;;;;;;211.25;87.28;;;21.40;46.80;;;;;;5102720;28;20184;-71
2021/12/09 11:24:22;;;;;;;212.07;88.45;;;21.40;47.10;;;;;;5101486;28;21673;-75
2021/12/09 11:29:21;;;;;;;215.63;86.82;;;21.40;47.60;;;;;;5101442;28;20094;-70
2021/12/09 11:32:14;;;;;;;202.95;81.30;;;21.40;47.80;;;;;;5103949;28;20728;-75
2021/12/09 11:34:50;;;;;;;196.60;77.90;;;21.30;48.00;;;;;;5099774;28;20047;-71
2021/12/09 11:40:08;;;;;;;174.38;70.55;;;21.30;48.00;;;;;;5103090;28;20044;-71
2021/12/09 11:42:43;;;;;;;162.77;66.75;;;21.30;48.00;;;;;;5107402;28;20035;-74
2021/12/09 11:45:11;;;;;;;164.77;64.10;;;21.30;48.00;;;;;;5104373;27;20142;-77
2021/12/09 11:47:38;;;;;;;158.68;60.95;;;21.30;48.00;;;;;;5108711;27;20227;-75
2021/12/09 11:50:05;;;;;;;153.68;58.78;;;21.30;48.00;;;;;;5098926;27;20043;-74
2021/12/09 11:52:31;;;;;;;135.20;55.25;;;21.20;48.00;;;;;;5102394;28;20058;-77
2021/12/09 11:55:02;;;;;;;134.32;54.53;;;21.20;48.00;;;;;;5103087;28;20055;-78
2021/12/09 11:57:37;;;;;;;143.13;54.42;;;21.20;48.00;;;;;;5106557;28;20061;-78
2021/12/09 12:15:25;;;;;;;109.90;43.67;;;21.20;48.80;;;;;;5097586;28;20446;-75
2021/12/09 12:20:48;;;;;;;101.95;40.53;;;21.20;49.00;;;;;;5100823;28;20400;-72
2021/12/09 12:24:30;;;;;;;105.18;40.65;;;21.20;48.90;;;;;;5096041;28;20101;-74
2021/12/09 12:26:56;;;;;;;95.88;38.50;;;21.20;49.20;;;;;;5087909;28;20056;-72
2021/12/09 12:32:17;;;;;;;90.05;37.80;;;21.20;49.20;;;;;;5098469;28;19924;-72
2021/12/09 12:35:33;;;;;;;96.50;36.90;;;21.20;48.90;;;;;;5095942;28;20127;-77
2021/12/09 12:41:06;;;;;;;78.82;32.63;;;21.20;49.10;;;;;;5098036;28;20054;-75
2021/12/09 12:43:45;;;;;;;76.32;33.42;;;21.20;49.00;;;;;;5104524;28;20091;-76
2021/12/09 12:46:21;;;;;;;78.35;31.67;;;21.20;49.10;;;;;;5094554;27;20082;-73
2021/12/09 12:51:29;;;;;;;75.53;31.92;;;21.20;49.00;;;;;;5102413;28;20479;-73
2021/12/09 12:54:25;;;;;;;69.22;30.08;;;21.20;49.00;;;;;;5100661;28;20078;-70
2021/12/09 12:56:57;;;;;;;72.50;29.42;;;21.20;49.10;;;;;;5102415;28;20560;-75
2021/12/09 12:59:30;;;;;;;69.05;28.90;;;21.20;49.10;;;;;;5122375;27;20132;-69
2021/12/09 13:03:02;;;;;;;63.30;27.17;;;21.20;49.00;;;;;;5104908;28;20357;-67
2021/12/09 13:05:53;;;;;;;66.55;27.77;;;21.20;48.90;;;;;;5104387;28;20058;-75
2021/12/09 13:11:42;;;;;;;71.15;26.27;;;21.20;48.90;;;;;;5103796;28;20055;-70
2021/12/09 13:14:17;;;;;;;63.33;26.27;;;21.20;49.00;;;;;;5100195;28;20043;-76
2021/12/09 13:17:02;;;;;;;66.43;24.98;;;21.20;49.00;;;;;;5104638;28;20084;-70
2021/12/09 13:20:04;;;;;;;56.28;24.05;;;21.20;49.10;;;;;;5103251;28;20035;-73
2021/12/09 13:22:18;;;;;;;;;;;21.10;49.10;;;;;;5104019;28;20092;-73
2021/12/09 13:25:01;;;;;;;53.20;22.80;;;21.20;49.30;;;;;;5104968;28;19923;-66
2021/12/09 13:27:50;;;;;;;52.15;23.25;;;21.10;49.20;;;;;;5100375;28;20032;-70
2021/12/09 13:33:22;;;;;;;55.03;23.02;;;21.20;49.50;;;;;;5101744;28;20039;-64
2021/12/09 13:46:43;;;;;;;47.95;21.08;;;21.10;49.90;;;;;;5103521;28;20071;-67
2021/12/09 13:54:29;;;;;;;46.80;19.77;;;21.10;50.00;;;;;;5102275;27;20035;-77
2021/12/09 13:57:05;;;;;;;43.35;19.33;;;21.10;50.10;;;;;;5102680;28;20126;-75